createdAt,value
2023-04-03T00:01:27.707Z,6.28
2023-04-03T00:03:55.926Z,6.10
2023-04-03T00:06:25.037Z,6.85
2023-04-03T00:08:53.861Z,6.78
2023-04-03T00:11:22.966Z,7.18
2023-04-03T00:13:50.895Z,6.72
2023-04-03T00:16:18.757Z,6.65
2023-04-03T00:18:46.364Z,7.47
2023-04-03T00:21:16.640Z,7.45
2023-04-03T00:23:44.096Z,6.55
2023-04-03T00:26:11.859Z,5.82
2023-04-03T00:28:40.979Z,6.07
2023-04-03T00:31:08.841Z,6.03
2023-04-03T00:33:36.430Z,5.90
2023-04-03T00:36:10.686Z,6.25
2023-04-03T00:38:44.524Z,5.45
2023-04-03T00:41:13.297Z,5.90
2023-04-03T00:43:41.392Z,5.60
2023-04-03T00:46:10.887Z,5.63
2023-04-03T00:48:42.500Z,5.43
2023-04-03T00:51:15.857Z,5.88
2023-04-03T00:53:48.756Z,7.03
2023-04-03T00:56:20.885Z,6.30
2023-04-03T00:58:59.545Z,5.43
2023-04-03T01:01:30.197Z,4.75
2023-04-03T01:04:01.275Z,5.53
2023-04-03T01:06:34.080Z,6.82
2023-04-03T01:09:07.529Z,6.32
2023-04-03T01:11:35.516Z,5.30
2023-04-03T01:14:05.350Z,5.32
2023-04-03T01:16:33.779Z,4.95
2023-04-03T01:19:02.548Z,5.43
2023-04-03T01:21:58.772Z,6.15
2023-04-03T01:24:42.479Z,5.63
2023-04-03T01:27:13.607Z,6.18
2023-04-03T01:29:44.672Z,5.95
2023-04-03T01:32:12.793Z,5.80
2023-04-03T01:34:42.559Z,6.18
2023-04-03T01:37:10.599Z,6.15
2023-04-03T01:39:37.895Z,6.57
2023-04-03T01:42:05.558Z,7.55
2023-04-03T01:44:38.371Z,8.07
2023-04-03T01:47:08.995Z,7.68
2023-04-03T01:49:42.654Z,9.48
2023-04-03T01:52:14.721Z,9.00
2023-04-03T01:54:43.605Z,8.52
2023-04-03T01:57:12.887Z,9.13
2023-04-03T01:59:40.819Z,9.32
2023-04-03T02:02:09.110Z,9.93
2023-04-03T02:04:37.087Z,9.50
2023-04-03T02:07:06.229Z,10.25
2023-04-03T02:09:37.252Z,9.45
2023-04-03T02:12:06.208Z,10.38
2023-04-03T02:14:34.063Z,10.23
2023-04-03T02:17:09.591Z,9.57
2023-04-03T02:19:39.256Z,9.10
2023-04-03T02:22:08.015Z,8.68
2023-04-03T02:24:36.713Z,10.32
2023-04-03T02:27:05.060Z,9.95
2023-04-03T02:29:32.749Z,9.80
2023-04-03T02:32:00.408Z,8.75
2023-04-03T02:34:29.050Z,8.45
2023-04-03T02:36:59.552Z,9.68
2023-04-03T02:39:27.364Z,9.20
2023-04-03T02:41:56.237Z,9.63
2023-04-03T02:44:25.872Z,9.20
2023-04-03T02:46:55.514Z,9.88
2023-04-03T02:49:28.529Z,8.73
2023-04-03T02:51:56.095Z,9.32
2023-04-03T02:54:24.487Z,8.75
2023-04-03T02:56:57.653Z,9.65
2023-04-03T02:59:25.915Z,8.88
2023-04-03T03:01:57.501Z,9.43
2023-04-03T03:04:25.654Z,9.60
2023-04-03T03:06:53.541Z,9.77
2023-04-03T03:09:20.959Z,9.93
2023-04-03T03:11:50.114Z,10.70
2023-04-03T03:14:17.362Z,9.32
2023-04-03T03:16:45.044Z,9.63
2023-04-03T03:19:13.174Z,10.07
2023-04-03T03:21:44.403Z,9.98
2023-04-03T03:24:14.130Z,10.60
2023-04-03T03:26:47.141Z,10.07
2023-04-03T03:29:16.001Z,10.50
2023-04-03T03:31:45.742Z,10.38
2023-04-03T03:34:14.546Z,10.23
2023-04-03T03:36:42.427Z,10.07
2023-04-03T03:39:10.013Z,11.45
2023-04-03T03:41:37.777Z,10.48
2023-04-03T03:44:06.617Z,10.65
2023-04-03T03:46:38.468Z,11.50
2023-04-03T03:49:12.939Z,10.43
2023-04-03T03:51:44.940Z,10.48
2023-04-03T03:54:13.657Z,10.93
2023-04-03T03:56:41.513Z,11.23
2023-04-03T03:59:08.806Z,11.07
2023-04-03T04:01:36.471Z,11.15
2023-04-03T04:04:07.134Z,11.60
2023-04-03T04:06:34.962Z,11.65
2023-04-03T04:09:06.557Z,13.70
2023-04-03T04:11:37.380Z,11.85
2023-04-03T04:14:04.862Z,13.13
2023-04-03T04:16:34.906Z,13.27
2023-04-03T04:19:09.023Z,12.55
2023-04-03T04:21:38.731Z,12.65
2023-04-03T04:24:09.426Z,13.38
2023-04-03T04:26:39.757Z,12.85
2023-04-03T04:29:11.245Z,12.70
2023-04-03T04:31:39.472Z,12.35
2023-04-03T04:34:09.693Z,12.35
2023-04-03T04:36:38.596Z,11.50
2023-04-03T04:39:07.024Z,12.02
2023-04-03T04:41:37.105Z,12.38
2023-04-03T04:44:10.163Z,12.90
2023-04-03T04:46:40.202Z,13.82
2023-04-03T04:49:10.529Z,13.00
2023-04-03T04:51:48.820Z,17.15
2023-04-03T04:54:22.223Z,14.43
2023-04-03T04:56:52.627Z,12.23
2023-04-03T04:59:46.223Z,13.70
2023-04-03T05:02:14.444Z,12.95
2023-04-03T05:04:45.701Z,13.95
2023-04-03T05:07:20.291Z,16.23
2023-04-03T05:09:49.491Z,17.40
2023-04-03T05:12:40.784Z,15.10
2023-04-03T05:15:11.268Z,15.02
2023-04-03T05:17:39.255Z,16.40
2023-04-03T05:20:14.156Z,15.02
2023-04-03T05:22:43.535Z,14.50
2023-04-03T05:25:11.721Z,14.50
2023-04-03T05:27:43.798Z,11.93
2023-04-03T05:30:14.179Z,11.40
2023-04-03T05:32:43.458Z,12.52
2023-04-03T05:35:28.845Z,11.85
2023-04-03T05:38:01.834Z,11.90
2023-04-03T05:40:31.222Z,11.38
2023-04-03T05:43:00.552Z,11.75
2023-04-03T05:45:35.083Z,10.70
2023-04-03T05:48:03.228Z,11.13
2023-04-03T05:50:33.119Z,12.07
2023-04-03T05:53:03.499Z,14.25
2023-04-03T05:55:34.284Z,13.05
2023-04-03T05:58:03.099Z,14.18
2023-04-03T06:00:32.853Z,13.27
2023-04-03T06:03:03.601Z,14.93
2023-04-03T06:05:35.458Z,14.95
2023-04-03T06:08:07.169Z,12.65
2023-04-03T06:10:37.478Z,12.85
2023-04-03T06:13:06.182Z,13.23
2023-04-03T06:15:34.475Z,12.90
2023-04-03T06:18:02.706Z,11.07
2023-04-03T06:20:35.833Z,11.52
2023-04-03T06:23:04.333Z,10.77
2023-04-03T06:25:32.862Z,11.13
2023-04-03T06:28:02.024Z,12.82
2023-04-03T06:30:30.004Z,12.68
2023-04-03T06:32:58.152Z,11.93
2023-04-03T06:35:30.331Z,12.93
2023-04-03T06:38:00.182Z,13.52
2023-04-03T06:40:27.748Z,13.70
2023-04-03T06:42:58.991Z,12.13
2023-04-03T06:45:26.745Z,11.85
2023-04-03T06:47:54.740Z,11.73
2023-04-03T06:50:22.189Z,11.93
2023-04-03T06:52:50.077Z,9.35
2023-04-03T06:55:19.797Z,7.57
2023-04-03T06:57:48.322Z,7.32
2023-04-03T07:00:17.474Z,7.50
2023-04-03T07:02:46.707Z,6.88
2023-04-03T07:05:14.980Z,7.25
2023-04-03T07:07:44.043Z,8.48
2023-04-03T07:10:12.323Z,7.13
2023-04-03T07:12:40.117Z,6.45
2023-04-03T07:15:09.812Z,7.65
2023-04-03T07:17:37.863Z,5.00
2023-04-03T07:20:25.705Z,5.95
2023-04-03T07:22:53.356Z,6.25
2023-04-03T07:25:21.091Z,6.53
2023-04-03T07:27:50.245Z,6.13
2023-04-03T07:30:17.619Z,6.00
2023-04-03T07:32:46.215Z,6.15
2023-04-03T07:35:13.993Z,6.35
2023-04-03T07:37:43.260Z,6.65
2023-04-03T07:40:13.865Z,5.72
2023-04-03T07:42:41.675Z,5.88
2023-04-03T07:45:10.773Z,5.68
2023-04-03T07:47:38.370Z,7.55
2023-04-03T07:50:06.161Z,7.68
2023-04-03T07:52:34.737Z,9.13
2023-04-03T07:55:04.899Z,11.75
2023-04-03T07:57:34.382Z,7.90
2023-04-03T08:00:08.607Z,7.90
2023-04-03T08:02:41.279Z,6.97
2023-04-03T08:05:11.533Z,8.93
2023-04-03T08:07:40.093Z,9.57
2023-04-03T08:10:08.259Z,13.27
2023-04-03T08:12:38.022Z,39.45
2023-04-03T08:15:05.994Z,10.82
2023-04-03T08:17:33.586Z,4.15
2023-04-03T08:20:00.989Z,5.53
2023-04-03T08:22:31.766Z,6.75
2023-04-03T08:24:59.965Z,6.47
2023-04-03T08:27:30.121Z,8.10
2023-04-03T08:30:15.857Z,6.97
2023-04-03T08:32:44.342Z,7.05
2023-04-03T08:35:18.579Z,5.68
2023-04-03T08:37:47.075Z,5.60
2023-04-03T08:40:18.031Z,5.47
2023-04-03T08:42:58.575Z,12.23
2023-04-03T08:45:53.173Z,7.78
2023-04-03T08:48:35.216Z,5.43
2023-04-03T08:51:12.423Z,7.43
2023-04-03T08:54:06.304Z,8.73
2023-04-03T08:56:34.911Z,17.95
2023-04-03T08:59:16.805Z,7.57
2023-04-03T09:01:45.798Z,8.20
2023-04-03T09:04:21.063Z,7.32
2023-04-03T09:06:55.624Z,5.53
2023-04-03T09:09:42.352Z,7.97
2023-04-03T09:12:24.438Z,9.52
2023-04-03T09:14:58.751Z,7.53
2023-04-03T09:17:26.069Z,8.82
2023-04-03T09:20:12.253Z,7.72
2023-04-03T09:22:49.826Z,9.60
2023-04-03T09:25:32.146Z,7.88
2023-04-03T09:28:01.178Z,5.80
2023-04-03T09:30:30.911Z,9.63
2023-04-03T09:32:58.611Z,12.68
2023-04-03T09:35:44.837Z,8.55
2023-04-03T09:38:17.796Z,8.23
2023-04-03T09:41:25.095Z,7.05
2023-04-03T09:43:55.189Z,8.27
2023-04-03T09:46:32.995Z,6.07
2023-04-03T09:49:09.612Z,11.02
2023-04-03T09:51:38.394Z,9.45
2023-04-03T09:54:28.382Z,5.72
2023-04-03T09:56:57.404Z,4.65
2023-04-03T09:59:25.005Z,10.80
2023-04-03T10:02:18.552Z,5.78
2023-04-03T10:04:48.794Z,6.57
2023-04-03T10:07:42.905Z,10.13
2023-04-03T10:12:47.631Z,9.10
2023-04-03T10:15:18.194Z,8.95
2023-04-03T10:18:04.323Z,9.23
2023-04-03T10:20:51.149Z,9.02
2023-04-03T10:23:26.386Z,7.45
2023-04-03T10:26:38.793Z,7.20
2023-04-03T10:29:28.139Z,5.45
2023-04-03T10:32:12.181Z,6.43
2023-04-03T10:34:54.686Z,6.70
2023-04-03T10:38:02.201Z,7.80
2023-04-03T10:40:41.972Z,5.10
2023-04-03T10:43:24.375Z,5.93
2023-04-03T10:46:24.485Z,7.88
2023-04-03T10:49:21.893Z,6.82
2023-04-03T10:51:57.300Z,6.47
2023-04-03T10:54:33.348Z,5.85
2023-04-03T10:57:12.627Z,5.82
2023-04-03T11:00:02.639Z,5.85
2023-04-03T11:02:52.774Z,5.68
2023-04-03T11:05:41.117Z,4.78
2023-04-03T11:08:34.672Z,5.13
2023-04-03T11:11:16.248Z,7.30
2023-04-03T11:14:06.010Z,4.82
2023-04-03T11:16:51.055Z,7.32
2023-04-03T11:19:31.003Z,5.57
2023-04-03T11:22:23.777Z,5.18
2023-04-03T11:25:24.883Z,4.10
2023-04-03T11:28:05.796Z,4.95
2023-04-03T11:30:47.904Z,4.72
2023-04-03T11:33:29.170Z,4.43
2023-04-03T11:36:24.998Z,4.43
2023-04-03T11:39:29.129Z,5.95
2023-04-03T11:42:06.812Z,4.72
2023-04-03T11:44:42.566Z,5.20
2023-04-03T11:47:12.752Z,6.25
2023-04-03T11:50:01.231Z,6.20
2023-04-03T11:52:45.222Z,4.50
2023-04-03T11:55:27.861Z,4.63
2023-04-03T11:57:58.698Z,7.25
2023-04-03T12:00:47.888Z,5.50
2023-04-03T12:03:33.343Z,5.50
2023-04-03T12:09:01.199Z,5.68
2023-04-03T12:11:33.700Z,4.57
2023-04-03T12:14:07.002Z,4.78
2023-04-03T12:16:40.427Z,4.40
2023-04-03T12:19:22.241Z,5.53
2023-04-03T12:22:13.563Z,6.90
2023-04-03T12:24:44.158Z,5.20
2023-04-03T12:27:23.491Z,5.68
2023-04-03T12:30:16.874Z,6.05
2023-04-03T12:33:26.827Z,7.07
2023-04-03T12:36:12.501Z,5.78
2023-04-03T12:39:04.718Z,4.47
2023-04-03T12:41:38.715Z,5.53
2023-04-03T12:44:31.787Z,5.00
2023-04-03T12:47:02.111Z,5.70
2023-04-03T12:49:46.171Z,4.97
2023-04-03T12:52:46.600Z,5.30
2023-04-03T12:55:21.987Z,5.88
2023-04-03T12:57:49.705Z,11.82
2023-04-03T13:00:23.027Z,4.47
2023-04-03T13:02:51.028Z,5.10
2023-04-03T13:05:20.989Z,7.38
2023-04-03T13:08:06.875Z,6.18
2023-04-03T13:10:55.604Z,8.93
2023-04-03T13:13:24.325Z,8.13
2023-04-03T13:15:53.874Z,6.97
2023-04-03T13:18:36.514Z,6.65
2023-04-03T13:21:10.240Z,6.25
2023-04-03T13:23:41.833Z,6.65
2023-04-03T13:26:10.002Z,5.55
2023-04-03T13:28:40.196Z,7.32
2023-04-03T13:31:15.261Z,8.25
2023-04-03T13:34:19.903Z,7.30
2023-04-03T13:37:01.666Z,8.40
2023-04-03T13:39:33.244Z,5.78
2023-04-03T13:42:16.821Z,7.05
2023-04-03T13:44:44.731Z,6.47
2023-04-03T13:47:23.455Z,4.65
2023-04-03T13:50:00.166Z,7.10
2023-04-03T13:52:32.112Z,8.85
2023-04-03T13:55:07.857Z,6.78
2023-04-03T13:57:37.543Z,6.82
2023-04-03T14:00:28.555Z,5.80
2023-04-03T14:02:58.280Z,5.43
2023-04-03T14:05:28.093Z,9.35
2023-04-03T14:07:56.646Z,7.82
2023-04-03T14:10:25.462Z,5.90
2023-04-03T14:12:52.858Z,6.22
2023-04-03T14:15:27.388Z,5.55
2023-04-03T14:17:56.464Z,5.45
2023-04-03T14:20:27.888Z,4.68
2023-04-03T14:22:55.848Z,8.63
2023-04-03T14:25:26.941Z,4.93
2023-04-03T14:27:57.303Z,4.47
2023-04-03T14:30:30.827Z,5.68
2023-04-03T14:32:58.821Z,4.22
2023-04-03T14:35:27.142Z,5.18
2023-04-03T14:37:55.095Z,4.93
2023-04-03T14:40:27.177Z,4.97
2023-04-03T14:42:56.567Z,4.65
2023-04-03T14:45:25.059Z,5.32
2023-04-03T14:47:55.935Z,5.10
2023-04-03T14:50:26.898Z,4.93
2023-04-03T14:52:57.870Z,5.80
2023-04-03T14:55:27.125Z,6.07
2023-04-03T14:57:56.288Z,4.00
2023-04-03T15:00:43.831Z,5.43
2023-04-03T15:03:24.512Z,4.20
2023-04-03T15:05:54.288Z,4.10
2023-04-03T15:08:27.822Z,6.07
2023-04-03T15:11:01.346Z,5.50
2023-04-03T15:13:28.787Z,6.78
2023-04-03T15:15:56.370Z,5.13
2023-04-03T15:18:30.976Z,5.32
2023-04-03T15:20:58.718Z,5.65
2023-04-03T15:23:27.087Z,5.63
2023-04-03T15:25:55.526Z,4.65
2023-04-03T15:28:34.001Z,5.25
2023-04-03T15:31:05.698Z,6.25
2023-04-03T15:33:35.270Z,7.57
2023-04-03T15:36:07.201Z,6.40
2023-04-03T15:38:35.542Z,6.90
2023-04-03T15:41:04.315Z,10.77
2023-04-03T15:43:32.058Z,6.05
2023-04-03T15:46:00.790Z,8.48
2023-04-03T15:48:29.375Z,10.73
2023-04-03T15:50:58.581Z,9.45
2023-04-03T15:53:26.893Z,8.57
2023-04-03T15:55:54.468Z,8.13
2023-04-03T15:58:25.046Z,5.20
2023-04-03T16:00:53.229Z,8.48
2023-04-03T16:03:25.417Z,5.70
2023-04-03T16:05:53.986Z,7.05
2023-04-03T16:08:23.618Z,5.47
2023-04-03T16:10:51.246Z,6.63
2023-04-03T16:13:18.807Z,5.53
2023-04-03T16:15:47.987Z,8.55
2023-04-03T16:18:16.595Z,7.68
2023-04-03T16:20:48.329Z,7.55
2023-04-03T16:23:16.009Z,7.80
2023-04-03T16:25:47.334Z,6.25
2023-04-03T16:28:15.692Z,5.38
2023-04-03T16:30:43.784Z,6.70
2023-04-03T16:33:13.167Z,6.57
2023-04-03T16:35:43.713Z,7.47
2023-04-03T16:38:11.335Z,5.53
2023-04-03T16:40:40.440Z,6.55
2023-04-03T16:43:07.998Z,7.15
2023-04-03T16:45:36.922Z,5.97
2023-04-03T16:48:04.868Z,5.78
2023-04-03T16:50:36.742Z,6.40
2023-04-03T16:53:04.245Z,10.77
2023-04-03T16:55:37.323Z,6.88
2023-04-03T16:58:07.719Z,6.50
2023-04-03T17:00:35.703Z,6.85
2023-04-03T17:03:04.240Z,6.82
2023-04-03T17:06:02.675Z,4.57
2023-04-03T17:08:29.939Z,5.85
2023-04-03T17:10:59.379Z,4.70
2023-04-03T17:13:39.519Z,4.68
2023-04-03T17:16:16.341Z,5.65
2023-04-03T17:18:44.167Z,5.70
2023-04-03T17:21:48.452Z,5.30
2023-04-03T17:24:16.126Z,5.15
2023-04-03T17:26:43.928Z,5.10
2023-04-03T17:29:11.340Z,6.35
2023-04-03T17:31:39.188Z,5.30
2023-04-03T17:34:06.515Z,6.10
2023-04-03T17:36:39.717Z,5.43
2023-04-03T17:39:51.195Z,7.38
2023-04-03T17:42:19.157Z,6.05
2023-04-03T17:44:46.845Z,8.32
2023-04-03T17:47:14.691Z,7.63
2023-04-03T17:49:42.161Z,8.00
2023-04-03T17:52:37.627Z,10.77
2023-04-03T17:55:05.525Z,7.60
2023-04-03T17:57:33.551Z,10.13
2023-04-03T18:00:01.489Z,12.95
2023-04-03T18:02:32.262Z,10.25
2023-04-03T18:04:59.643Z,8.00
2023-04-03T18:07:28.525Z,7.22
2023-04-03T18:09:57.882Z,7.95
2023-04-03T18:12:26.529Z,7.28
2023-04-03T18:14:54.472Z,5.90
2023-04-03T18:17:22.494Z,17.92
2023-04-03T18:19:51.720Z,4.75
2023-04-03T18:22:21.818Z,5.85
2023-04-03T18:24:52.700Z,6.43
2023-04-03T18:27:25.532Z,6.20
2023-04-03T18:29:57.086Z,6.78
2023-04-03T18:32:25.582Z,5.75
2023-04-03T18:34:52.982Z,4.90
2023-04-03T18:37:24.012Z,5.65
2023-04-03T18:39:51.885Z,5.28
2023-04-03T18:42:25.332Z,3.88
2023-04-03T18:44:57.987Z,4.45
2023-04-03T18:47:28.971Z,3.97
2023-04-03T18:49:57.976Z,4.10
2023-04-03T18:52:26.927Z,3.33
2023-04-03T18:54:55.379Z,3.67
2023-04-03T18:57:33.460Z,2.97
2023-04-03T19:00:32.643Z,3.17
2023-04-03T19:04:19.154Z,5.57
2023-04-03T19:07:20.321Z,3.40
2023-04-03T19:09:48.255Z,3.65
2023-04-03T19:12:26.802Z,4.70
2023-04-03T19:15:08.055Z,3.58
2023-04-03T19:17:38.450Z,4.40
2023-04-03T19:24:16.462Z,4.60
2023-04-03T19:27:35.761Z,5.28
2023-04-03T19:30:11.389Z,3.88
2023-04-03T19:35:08.088Z,4.40
2023-04-03T19:37:35.613Z,6.18
2023-04-03T19:40:09.441Z,4.60
2023-04-03T19:42:40.412Z,4.32
2023-04-03T19:45:33.280Z,9.25
2023-04-03T19:48:01.625Z,5.38
2023-04-03T19:50:30.654Z,6.85
2023-04-03T19:52:58.184Z,5.28
2023-04-03T19:55:31.146Z,4.57
2023-04-03T19:57:59.945Z,5.00
2023-04-03T20:00:29.670Z,5.32
2023-04-03T20:03:00.221Z,4.65
2023-04-03T20:05:28.061Z,5.10
2023-04-03T20:07:57.121Z,4.45
2023-04-03T20:10:25.902Z,4.65
2023-04-03T20:12:53.137Z,6.85
2023-04-03T20:15:21.458Z,5.28
2023-04-03T20:17:50.304Z,4.63
2023-04-03T20:20:20.469Z,4.22
2023-04-03T20:22:48.920Z,4.75
2023-04-03T20:25:23.672Z,6.78
2023-04-03T20:28:03.799Z,6.13
2023-04-03T20:30:31.464Z,6.32
2023-04-03T20:32:59.334Z,4.78
2023-04-03T20:35:28.002Z,6.00
2023-04-03T20:37:55.958Z,5.35
2023-04-03T20:40:23.754Z,5.05
2023-04-03T20:43:00.050Z,5.60
2023-04-03T20:45:28.609Z,5.40
2023-04-03T20:48:08.464Z,5.20
2023-04-03T20:50:40.907Z,4.78
2023-04-03T20:53:34.448Z,3.70
2023-04-03T20:56:59.598Z,6.20
2023-04-03T20:59:35.078Z,8.32
2023-04-03T21:02:10.086Z,5.97
2023-04-03T21:04:56.987Z,6.65
2023-04-03T21:08:05.206Z,6.55
2023-04-03T21:11:20.678Z,5.97
2023-04-03T21:14:37.866Z,4.95
2023-04-03T21:17:34.135Z,4.68
2023-04-03T21:20:17.000Z,5.00
2023-04-03T21:22:56.563Z,4.53
2023-04-03T21:25:28.218Z,6.72
2023-04-03T21:28:24.809Z,6.82
2023-04-03T21:30:56.734Z,6.18
2023-04-03T21:33:29.142Z,6.43
2023-04-03T21:36:00.008Z,6.18
2023-04-03T21:38:34.076Z,5.22
2023-04-03T21:41:03.135Z,5.45
2023-04-03T21:43:57.234Z,4.72
2023-04-03T21:46:28.224Z,5.80
2023-04-03T21:49:08.053Z,5.40
2023-04-03T21:51:42.055Z,5.30
2023-04-03T21:54:12.547Z,5.68
2023-04-03T21:56:42.420Z,4.97
2023-04-03T21:59:11.988Z,4.10
2023-04-03T22:01:43.438Z,5.43
2023-04-03T22:04:37.991Z,5.05
2023-04-03T22:07:05.640Z,5.97
2023-04-03T22:09:32.888Z,5.45
2023-04-03T22:12:00.456Z,5.47
2023-04-03T22:14:27.898Z,5.03
2023-04-03T22:16:56.184Z,5.93
2023-04-03T22:19:23.939Z,5.35
2023-04-03T22:21:51.763Z,5.80
2023-04-03T22:24:22.167Z,5.82
2023-04-03T22:26:52.751Z,6.38
2023-04-03T22:29:20.209Z,5.50
2023-04-03T22:31:48.126Z,6.30
2023-04-03T22:34:16.799Z,6.38
2023-04-03T22:36:44.517Z,5.70
2023-04-03T22:39:13.220Z,5.85
2023-04-03T22:41:40.849Z,5.22
2023-04-03T22:44:08.428Z,6.30
2023-04-03T22:46:36.452Z,5.82
2023-04-03T22:49:04.461Z,6.32
2023-04-03T22:51:31.900Z,6.30
2023-04-03T22:53:59.048Z,5.72
2023-04-03T22:56:26.816Z,7.15
2023-04-03T22:58:54.168Z,6.60
2023-04-03T23:01:24.285Z,6.00
2023-04-03T23:03:51.871Z,6.15
2023-04-03T23:06:19.443Z,5.72
2023-04-03T23:08:46.758Z,6.60
2023-04-03T23:11:14.407Z,6.03
2023-04-03T23:13:43.699Z,6.63
2023-04-03T23:16:12.084Z,5.50
2023-04-03T23:18:40.113Z,5.30
2023-04-03T23:21:08.756Z,6.03
2023-04-03T23:23:36.442Z,5.68
2023-04-03T23:26:04.586Z,6.05
2023-04-03T23:28:31.904Z,7.38
2023-04-03T23:31:04.071Z,7.00
2023-04-03T23:33:32.404Z,5.82
2023-04-03T23:36:01.337Z,6.70
2023-04-03T23:38:28.616Z,6.45
2023-04-03T23:40:56.150Z,6.70
2023-04-03T23:43:23.440Z,6.25
2023-04-03T23:45:51.823Z,7.63
2023-04-03T23:48:19.321Z,6.75
2023-04-03T23:50:47.107Z,8.50
2023-04-03T23:53:14.261Z,7.85
2023-04-03T23:55:42.169Z,8.77
2023-04-03T23:58:09.479Z,7.03
